createdAt,value
2023-03-01T09:12:15.340Z,62.76
2023-03-01T09:13:15.353Z,62.22
2023-03-01T09:14:16.476Z,60.91
2023-03-01T09:15:16.472Z,62.04
2023-03-01T09:16:16.456Z,62.22
2023-03-01T09:17:16.430Z,61.32
2023-03-01T09:18:16.441Z,62.04
2023-03-01T09:19:16.431Z,61.19
2023-03-01T09:20:16.406Z,61.10
2023-03-01T09:21:16.419Z,63.66
2023-03-01T09:22:16.393Z,64.46
2023-03-01T09:23:16.388Z,64.76
2023-03-01T09:24:16.416Z,64.62
2023-03-01T09:25:16.389Z,65.19
2023-03-01T09:26:16.387Z,63.81
2023-03-01T09:27:16.370Z,64.70
2023-03-01T09:28:29.171Z,64.52
2023-03-01T09:29:18.338Z,64.94
2023-03-01T09:30:16.332Z,64.49
2023-03-01T09:31:16.408Z,63.87
2023-03-01T09:32:16.529Z,64.25
2023-03-01T09:33:16.313Z,63.48
2023-03-01T09:34:16.306Z,65.62
2023-03-01T09:35:16.328Z,65.52
2023-03-01T09:36:16.283Z,66.03
2023-03-01T09:37:16.275Z,65.56
2023-03-01T09:38:16.378Z,64.49
2023-03-01T09:39:16.295Z,64.39
2023-03-01T09:40:16.277Z,65.01
2023-03-01T09:41:16.261Z,64.28
2023-03-01T09:42:16.240Z,63.74
2023-03-01T09:43:16.227Z,62.73
2023-03-01T09:44:48.114Z,64.15
2023-03-01T09:45:16.198Z,64.04
2023-03-01T09:46:16.328Z,63.01
2023-03-01T09:47:16.186Z,63.22
2023-03-01T09:48:16.211Z,63.25
2023-03-01T09:49:16.180Z,63.90
2023-03-01T09:50:16.183Z,64.39
2023-03-01T09:51:16.163Z,63.22
2023-03-01T09:52:16.162Z,63.69
2023-03-01T09:53:16.168Z,64.39
2023-03-01T09:54:16.157Z,64.46
2023-03-01T09:55:16.151Z,63.40
2023-03-01T09:56:16.129Z,63.25
2023-03-01T09:57:16.131Z,64.56
2023-03-01T09:58:16.122Z,63.16
2023-03-01T09:59:16.097Z,63.01
2023-03-01T10:00:16.090Z,62.37
2023-03-01T10:01:16.073Z,62.88
2023-03-01T10:02:16.108Z,62.93
2023-03-01T10:03:16.113Z,62.35
2023-03-01T10:04:16.217Z,61.74
2023-03-01T10:05:16.070Z,63.56
2023-03-01T10:06:27.579Z,64.34
2023-03-01T10:07:18.057Z,65.29
2023-03-01T10:08:16.070Z,63.03
2023-03-01T10:09:16.046Z,62.37
2023-03-01T10:10:16.030Z,62.88
2023-03-01T10:11:16.039Z,63.29
2023-03-01T10:12:16.005Z,63.03
2023-03-01T10:13:16.012Z,62.34
2023-03-01T10:14:15.983Z,62.75
2023-03-01T10:15:15.972Z,62.46
2023-03-01T10:16:16.055Z,61.22
2023-03-01T10:17:17.471Z,61.42
2023-03-01T10:18:15.974Z,60.98
2023-03-01T10:19:16.595Z,60.49
2023-03-01T10:20:15.965Z,61.22
2023-03-01T10:21:15.936Z,61.08
2023-03-01T10:22:15.944Z,60.67
2023-03-01T10:23:15.929Z,60.98
2023-03-01T10:24:15.957Z,61.22
2023-03-01T10:25:15.908Z,61.11
2023-03-01T10:26:15.897Z,61.42
2023-03-01T10:27:15.874Z,60.80
2023-03-01T10:28:15.873Z,61.11
2023-03-01T10:29:15.894Z,61.29
2023-03-01T10:30:15.855Z,60.77
2023-03-01T10:31:15.945Z,60.80
2023-03-01T10:32:15.880Z,61.11
2023-03-01T10:33:15.836Z,61.01
2023-03-01T10:34:15.838Z,61.35
2023-03-01T10:35:15.848Z,61.35
2023-03-01T10:36:15.800Z,61.35
2023-03-01T10:37:15.852Z,61.66
2023-03-01T10:38:15.799Z,62.38
2023-03-01T10:39:15.800Z,60.88
2023-03-01T10:40:15.793Z,60.77
2023-03-01T10:41:15.752Z,60.91
2023-03-01T10:42:15.781Z,61.16
2023-03-01T10:43:15.768Z,59.92
2023-03-01T10:44:15.739Z,60.21
2023-03-01T10:45:15.765Z,59.45
2023-03-01T10:46:15.803Z,60.85
2023-03-01T10:47:15.704Z,59.41
2023-03-01T10:48:15.776Z,61.01
2023-03-01T10:49:15.741Z,61.11
2023-03-01T10:50:15.711Z,60.67
2023-03-01T10:51:15.690Z,61.32
2023-03-01T10:52:15.740Z,61.08
2023-03-01T10:53:15.658Z,59.72
2023-03-01T10:54:15.650Z,60.44
2023-03-01T10:55:15.648Z,60.33
2023-03-01T10:56:15.697Z,59.58
2023-03-01T10:57:15.650Z,59.48
2023-03-01T10:58:15.751Z,58.97
2023-03-01T10:59:15.659Z,58.99
2023-03-01T11:00:15.647Z,58.97
2023-03-01T11:01:15.667Z,58.45
2023-03-01T11:02:24.542Z,59.07
2023-03-01T11:03:17.639Z,60.00
2023-03-01T11:04:15.662Z,58.97
2023-03-01T11:05:15.581Z,58.14
2023-03-01T11:06:15.581Z,59.17
2023-03-01T11:07:15.598Z,58.25
2023-03-01T11:08:15.570Z,59.44
2023-03-01T11:09:15.558Z,59.46
2023-03-01T11:10:15.558Z,58.94
2023-03-01T11:11:15.553Z,59.08
2023-03-01T11:12:15.534Z,58.40
2023-03-01T11:13:15.514Z,57.57
2023-03-01T11:14:25.876Z,57.89
2023-03-01T11:15:17.499Z,58.01
2023-03-01T11:16:15.614Z,58.20
2023-03-01T11:17:15.504Z,58.06
2023-03-01T11:18:15.518Z,57.62
2023-03-01T11:19:15.491Z,57.73
2023-03-01T11:20:15.539Z,57.24
2023-03-01T11:21:15.487Z,57.24
2023-03-01T11:22:15.524Z,56.80
2023-03-01T11:23:15.480Z,56.36
2023-03-01T11:24:15.441Z,56.36
2023-03-01T11:25:15.453Z,56.57
2023-03-01T11:26:15.420Z,55.87
2023-03-01T11:27:15.403Z,56.31
2023-03-01T11:28:16.027Z,56.03
2023-03-01T11:29:15.434Z,56.57
2023-03-01T11:30:15.454Z,56.88
2023-03-01T11:31:15.458Z,56.29
2023-03-01T11:32:15.461Z,57.76
2023-03-01T11:33:15.402Z,57.42
2023-03-01T11:34:15.387Z,57.06
2023-03-01T11:35:15.340Z,56.83
2023-03-01T11:36:16.190Z,55.02
2023-03-01T11:37:15.410Z,56.00
2023-03-01T11:38:15.348Z,57.68
2023-03-01T11:39:15.378Z,57.94
2023-03-01T11:40:15.435Z,57.24
2023-03-01T11:41:15.321Z,57.68
2023-03-01T11:42:19.150Z,58.33
2023-03-01T11:43:16.369Z,58.40
2023-03-01T11:44:15.320Z,58.67
2023-03-01T11:45:15.296Z,59.05
2023-03-01T11:46:15.350Z,58.74
2023-03-01T11:47:15.372Z,58.09
2023-03-01T11:48:15.269Z,58.25
2023-03-01T11:49:15.281Z,57.24
2023-03-01T11:50:15.252Z,58.07
2023-03-01T11:51:15.790Z,59.31
2023-03-01T11:52:16.255Z,57.63
2023-03-01T11:53:15.219Z,58.30
2023-03-01T11:54:15.196Z,58.51
2023-03-01T11:55:16.221Z,57.89
2023-03-01T11:56:15.220Z,58.30
2023-03-01T11:57:15.181Z,58.40
2023-03-01T11:58:15.168Z,58.72
2023-03-01T11:59:15.205Z,59.62
2023-03-01T12:00:15.196Z,59.62
2023-03-01T12:01:15.182Z,59.28
2023-03-01T12:02:15.202Z,59.67
2023-03-01T12:03:15.132Z,57.50
2023-03-01T12:04:15.236Z,57.19
2023-03-01T12:05:15.149Z,58.04
2023-03-01T12:06:15.146Z,58.28
2023-03-01T12:07:15.190Z,59.28
2023-03-01T12:08:15.113Z,59.00
2023-03-01T12:09:15.126Z,58.51
2023-03-01T12:10:15.130Z,59.55
2023-03-01T12:11:15.151Z,59.34
2023-03-01T12:12:15.082Z,58.97
2023-03-01T12:13:15.093Z,59.00
2023-03-01T12:14:15.046Z,59.08
2023-03-01T12:15:15.054Z,58.69
2023-03-01T12:16:16.270Z,59.23
2023-03-01T12:17:15.107Z,60.30
2023-03-01T12:18:15.029Z,60.96
2023-03-01T12:19:15.044Z,60.03
2023-03-01T12:20:15.129Z,58.72
2023-03-01T12:21:14.995Z,59.55
2023-03-01T12:22:14.984Z,59.31
2023-03-01T12:23:20.756Z,59.44
2023-03-01T12:24:16.973Z,59.95
2023-03-01T12:25:14.991Z,60.34
2023-03-01T12:26:14.992Z,59.59
2023-03-01T12:27:14.970Z,59.62
2023-03-01T12:28:14.967Z,59.23
2023-03-01T12:29:14.942Z,60.06
2023-03-01T12:30:14.930Z,60.52
2023-03-01T12:31:14.987Z,58.43
2023-03-01T12:32:15.202Z,58.30
2023-03-01T12:33:14.917Z,58.12
2023-03-01T12:34:14.952Z,58.07
2023-03-01T12:35:14.886Z,58.45
2023-03-01T12:36:14.936Z,58.35
2023-03-01T12:37:14.880Z,57.91
2023-03-01T12:38:14.857Z,57.29
2023-03-01T12:39:14.907Z,57.09
2023-03-01T12:40:14.847Z,57.26
2023-03-01T12:41:14.882Z,56.26
2023-03-01T12:42:14.822Z,57.14
2023-03-01T12:43:14.873Z,57.55
2023-03-01T12:44:14.841Z,57.01
2023-03-01T12:45:14.827Z,57.11
2023-03-01T12:46:14.864Z,57.84
2023-03-01T12:47:14.824Z,58.04
2023-03-01T12:48:14.800Z,58.30
2023-03-01T12:49:14.801Z,58.40
2023-03-01T12:50:14.872Z,59.34
2023-03-01T12:51:14.812Z,59.13
2023-03-01T12:52:14.758Z,58.40
2023-03-01T12:53:14.741Z,58.92
2023-03-01T12:54:14.759Z,58.61
2023-03-01T12:55:14.890Z,58.51
2023-03-01T12:56:14.720Z,58.09
2023-03-01T12:57:14.722Z,58.45
2023-03-01T12:58:14.728Z,57.94
2023-03-01T12:59:15.631Z,57.84
2023-03-01T13:00:14.734Z,57.32
2023-03-01T13:01:14.742Z,57.29
2023-03-01T13:02:14.666Z,56.57
2023-03-01T13:03:14.684Z,56.90
2023-03-01T13:04:14.705Z,56.93
2023-03-01T13:05:14.680Z,57.65
2023-03-01T13:06:14.690Z,57.68
2023-03-01T13:07:14.698Z,57.73
2023-03-01T13:08:14.695Z,57.34
2023-03-01T13:09:14.635Z,57.55
2023-03-01T13:10:14.648Z,57.42
2023-03-01T13:11:14.624Z,57.42
2023-03-01T13:12:20.220Z,56.70
2023-03-01T13:13:16.618Z,56.62
2023-03-01T13:14:14.580Z,57.55
2023-03-01T13:15:14.561Z,57.94
2023-03-01T13:16:15.907Z,57.73
2023-03-01T13:17:15.575Z,56.85
2023-03-01T13:18:15.198Z,57.27
2023-03-01T13:19:14.543Z,57.55
2023-03-01T13:20:14.596Z,57.27
2023-03-01T13:21:14.568Z,57.45
2023-03-01T13:22:14.540Z,58.07
2023-03-01T13:23:14.517Z,57.94
2023-03-01T13:24:14.514Z,57.29
2023-03-01T13:25:14.538Z,56.39
2023-03-01T13:26:14.493Z,56.70
2023-03-01T13:27:14.499Z,56.31
2023-03-01T13:28:15.116Z,56.62
2023-03-01T13:29:14.509Z,56.62
2023-03-01T13:30:14.454Z,57.24
2023-03-01T13:31:14.447Z,56.93
2023-03-01T13:32:14.534Z,57.34
2023-03-01T13:33:14.473Z,57.45
2023-03-01T13:34:14.456Z,58.38
2023-03-01T13:35:14.403Z,58.15
2023-03-01T13:36:14.497Z,58.25
2023-03-01T13:37:14.389Z,58.15
2023-03-01T13:38:14.415Z,57.94
2023-03-01T13:39:15.923Z,57.63
2023-03-01T13:40:14.385Z,57.21
2023-03-01T13:41:14.381Z,57.42
2023-03-01T13:42:14.354Z,57.73
2023-03-01T13:43:14.393Z,57.45
2023-03-01T13:44:14.586Z,58.09
2023-03-01T13:45:14.340Z,58.72
2023-03-01T13:46:14.402Z,59.31
2023-03-01T13:47:14.396Z,59.20
2023-03-01T13:48:14.336Z,58.53
2023-03-01T13:49:14.309Z,58.43
2023-03-01T13:50:14.321Z,57.19
2023-03-01T13:51:14.304Z,57.19
2023-03-01T13:52:14.672Z,56.39
2023-03-01T13:53:14.296Z,57.21
2023-03-01T13:54:14.260Z,57.63
2023-03-01T13:55:14.262Z,57.84
2023-03-01T13:56:14.258Z,58.15
2023-03-01T13:57:14.265Z,57.50
2023-03-01T13:58:14.232Z,57.21
2023-03-01T13:59:14.236Z,57.84
2023-03-01T14:00:14.254Z,57.32
2023-03-01T14:01:14.342Z,57.32
2023-03-01T14:02:14.227Z,57.94
2023-03-01T14:03:14.206Z,58.53
2023-03-01T14:04:14.300Z,57.53
2023-03-01T14:05:14.207Z,57.73
2023-03-01T14:06:17.256Z,57.73
2023-03-01T14:07:15.181Z,57.97
2023-03-01T14:08:14.203Z,58.35
2023-03-01T14:09:15.049Z,58.15
2023-03-01T14:10:14.179Z,57.65
2023-03-01T14:11:14.141Z,58.07
2023-03-01T14:12:14.135Z,58.38
2023-03-01T14:13:16.431Z,57.84
2023-03-01T14:14:15.170Z,58.04
2023-03-01T14:15:14.661Z,58.59
2023-03-01T14:16:14.145Z,58.38
2023-03-01T14:17:14.086Z,58.28
2023-03-01T14:18:14.101Z,58.04
2023-03-01T14:19:16.088Z,58.15
2023-03-01T14:20:15.088Z,58.45
2023-03-01T14:21:14.067Z,58.17
2023-03-01T14:22:14.088Z,58.56
2023-03-01T14:23:14.053Z,58.15
2023-03-01T14:24:14.045Z,57.84
2023-03-01T14:25:14.039Z,57.55
2023-03-01T14:26:14.059Z,58.69
2023-03-01T14:27:14.011Z,58.04
2023-03-01T14:28:14.002Z,58.07
2023-03-01T14:29:14.000Z,58.28
2023-03-01T14:30:14.040Z,58.07
2023-03-01T14:31:13.998Z,57.11
2023-03-01T14:32:14.008Z,57.11
2023-03-01T14:33:13.959Z,57.53
2023-03-01T14:34:13.973Z,57.32
2023-03-01T14:35:13.964Z,57.73
2023-03-01T14:36:14.034Z,57.84
2023-03-01T14:37:13.937Z,58.15
2023-03-01T14:38:13.959Z,58.01
2023-03-01T14:39:13.935Z,57.73
2023-03-01T14:40:13.929Z,58.25
2023-03-01T14:41:13.945Z,58.25
2023-03-01T14:42:15.733Z,57.73
2023-03-01T14:43:14.901Z,56.49
2023-03-01T14:44:13.878Z,56.39
2023-03-01T14:45:13.885Z,56.39
2023-03-01T14:46:13.896Z,56.46
2023-03-01T14:47:13.868Z,56.16
2023-03-01T14:48:13.873Z,56.05
2023-03-01T14:49:13.868Z,56.16
2023-03-01T14:50:13.884Z,56.03
2023-03-01T14:51:13.857Z,55.64
2023-03-01T14:52:13.874Z,55.54
2023-03-01T14:53:13.822Z,55.98
2023-03-01T14:54:13.811Z,55.87
2023-03-01T14:55:13.875Z,55.87
2023-03-01T14:56:13.794Z,54.82
2023-03-01T14:57:13.800Z,55.26
2023-03-01T14:58:13.838Z,55.54
2023-03-01T14:59:13.770Z,55.98
2023-03-01T15:00:13.762Z,55.36
2023-03-01T15:01:13.803Z,55.46
2023-03-01T15:02:13.751Z,55.66
2023-03-01T15:03:13.746Z,54.22
2023-03-01T15:04:13.812Z,55.46
2023-03-01T15:05:13.729Z,55.66
2023-03-01T15:06:13.739Z,55.36
2023-03-01T15:07:13.694Z,55.77
2023-03-01T15:08:13.737Z,55.56
2023-03-01T15:09:13.681Z,55.87
2023-03-01T15:10:13.685Z,56.08
2023-03-01T15:11:13.697Z,55.98
2023-03-01T15:12:14.648Z,55.87
2023-03-01T15:13:13.719Z,55.87
2023-03-01T15:14:13.648Z,55.77
2023-03-01T15:15:13.636Z,56.49
2023-03-01T15:16:13.742Z,55.98
2023-03-01T15:17:13.639Z,55.80
2023-03-01T15:18:13.670Z,56.41
2023-03-01T15:19:13.614Z,56.49
2023-03-01T15:20:13.633Z,57.04
2023-03-01T15:21:13.600Z,56.81
2023-03-01T15:22:15.568Z,57.14
2023-03-01T15:23:13.604Z,56.73
2023-03-01T15:24:13.597Z,57.34
2023-03-01T15:25:13.550Z,57.34
2023-03-01T15:26:13.576Z,57.21
2023-03-01T15:27:13.573Z,57.24
2023-03-01T15:28:13.648Z,57.76
2023-03-01T15:29:13.543Z,58.28
2023-03-01T15:30:13.545Z,58.35
2023-03-01T15:31:13.544Z,58.79
2023-03-01T15:32:13.596Z,58.38
2023-03-01T15:33:13.523Z,57.97
2023-03-01T15:34:13.480Z,58.38
2023-03-01T15:35:13.481Z,58.28
2023-03-01T15:36:13.477Z,58.07
2023-03-01T15:37:13.501Z,58.17
2023-03-01T15:38:24.645Z,58.17
2023-03-01T15:39:15.470Z,58.28
2023-03-01T15:40:13.434Z,58.82
2023-03-01T15:41:13.447Z,58.09
2023-03-01T15:42:13.457Z,58.09
2023-03-01T15:43:13.422Z,58.38
2023-03-01T15:46:45.295Z,59.64
2023-03-01T15:47:45.284Z,59.85
2023-03-01T15:48:45.278Z,59.34
2023-03-01T15:49:55.052Z,59.78
2023-03-01T15:50:46.238Z,60.06
2023-03-01T15:51:45.233Z,60.58
2023-03-01T15:52:45.211Z,60.60
2023-03-01T15:53:53.990Z,59.85
2023-03-01T15:54:46.226Z,60.68
2023-03-01T15:55:46.375Z,60.78
2023-03-01T15:56:46.331Z,60.78
2023-03-01T15:57:46.352Z,60.30
2023-03-01T15:58:46.317Z,61.22
2023-03-01T15:59:46.300Z,60.81
2023-03-01T16:00:59.905Z,60.81
2023-03-01T16:01:48.314Z,60.71
2023-03-01T16:02:46.334Z,61.12
2023-03-01T16:03:46.344Z,60.71
2023-03-01T16:04:46.260Z,61.02
2023-03-01T16:05:46.283Z,60.91
2023-03-01T16:06:46.302Z,60.71
2023-03-01T16:07:46.287Z,61.15
2023-03-01T16:08:46.247Z,61.12
2023-03-01T16:09:46.235Z,61.87
2023-03-01T16:10:46.279Z,61.46
2023-03-01T16:11:46.225Z,61.87
2023-03-01T16:12:46.304Z,61.46
2023-03-01T16:13:46.278Z,62.77
2023-03-01T16:14:46.260Z,61.57
2023-03-01T16:15:46.238Z,61.87
2023-03-01T16:16:46.254Z,62.29
2023-03-01T16:17:46.288Z,62.49
2023-03-01T16:18:46.178Z,62.49
2023-03-01T16:19:46.206Z,62.60
2023-03-01T16:20:46.145Z,62.63
2023-03-01T16:21:46.147Z,63.15
2023-03-01T16:22:46.125Z,63.25
2023-03-01T16:23:46.160Z,63.66
2023-03-01T16:24:46.160Z,63.76
2023-03-01T16:25:46.095Z,63.97
2023-03-01T16:26:47.060Z,64.18
2023-03-01T16:27:46.123Z,64.52
2023-03-01T16:28:46.156Z,63.79
2023-03-01T16:29:46.099Z,63.76
2023-03-01T16:31:19.376Z,63.90
2023-03-01T16:31:47.796Z,63.79
2023-03-01T16:35:43.220Z,64.83
2023-03-01T16:36:43.836Z,65.07
2023-03-01T16:37:45.661Z,65.17
2023-03-01T16:38:46.521Z,65.35
2023-03-01T16:39:44.369Z,65.59
2023-03-01T16:40:44.542Z,65.59
2023-03-01T16:41:46.360Z,65.48
2023-03-01T16:42:48.134Z,65.83
2023-03-01T16:43:45.169Z,66.55
2023-03-01T16:44:44.178Z,66.35
2023-03-01T16:45:44.371Z,66.44
2023-03-01T16:46:44.096Z,66.24
2023-03-01T16:47:44.109Z,66.31
2023-03-01T16:48:44.392Z,66.31
2023-03-01T16:49:44.165Z,66.44
2023-03-01T16:50:45.440Z,66.52
2023-03-01T16:51:44.260Z,66.24
2023-03-01T16:52:44.115Z,66.75
2023-03-01T16:53:47.050Z,66.35
2023-03-01T16:54:45.091Z,66.55
2023-03-01T16:55:44.210Z,66.35
2023-03-01T16:56:44.114Z,66.44
2023-03-01T16:57:44.153Z,67.30
2023-03-01T16:58:43.999Z,66.75
2023-03-01T16:59:44.044Z,66.55
2023-03-01T17:00:44.065Z,66.44
2023-03-01T17:01:44.109Z,66.68
2023-03-01T17:02:43.932Z,66.47
2023-03-01T17:03:43.885Z,66.47
2023-03-01T17:04:43.959Z,66.78
2023-03-01T17:05:44.046Z,66.58
2023-03-01T17:06:43.920Z,66.75
2023-03-01T17:07:43.914Z,67.76
2023-03-01T17:08:43.936Z,67.86
2023-03-01T17:09:43.905Z,67.24
2023-03-01T17:10:43.985Z,67.44
2023-03-01T17:11:44.023Z,67.65
2023-03-01T17:12:44.053Z,67.76
2023-03-01T17:13:44.032Z,67.44
2023-03-01T17:14:43.834Z,67.55
2023-03-01T17:15:44.422Z,67.68
2023-03-01T17:16:43.899Z,67.76
2023-03-01T17:17:43.833Z,67.58
2023-03-01T17:18:43.837Z,68.20
2023-03-01T17:19:44.447Z,68.41
2023-03-01T17:20:44.143Z,68.41
2023-03-01T17:21:48.954Z,68.93
2023-03-01T17:22:43.841Z,69.03
2023-03-01T18:12:23.137Z,69.71
2023-03-01T18:13:24.286Z,69.61
2023-03-01T18:14:24.690Z,69.30
2023-03-01T18:15:24.892Z,69.51
2023-03-01T18:16:24.871Z,69.82
2023-03-01T18:17:25.251Z,69.61
2023-03-01T18:18:24.244Z,69.71
2023-03-01T18:19:26.079Z,69.30
2023-03-01T18:20:24.904Z,70.06
2023-03-01T18:21:24.827Z,70.13
2023-03-01T18:22:24.191Z,70.03
2023-03-01T18:25:45.569Z,70.58
2023-03-01T18:26:43.793Z,70.79
2023-03-01T18:27:45.009Z,71.34
2023-03-01T18:28:45.253Z,70.72
2023-03-01T18:32:48.747Z,71.13
2023-03-01T18:33:49.967Z,71.34
2023-03-01T18:34:49.880Z,71.00
2023-03-01T18:35:49.904Z,71.34
2023-03-01T18:37:08.157Z,71.13
2023-03-01T18:37:52.058Z,71.34
2023-03-01T18:38:51.122Z,71.20
2023-03-01T18:39:52.671Z,70.82
2023-03-01T18:40:51.620Z,71.23
2023-03-01T18:41:50.748Z,71.34
2023-03-01T18:42:50.164Z,71.00
2023-03-01T18:43:50.536Z,71.13
2023-03-01T18:44:50.014Z,71.34
2023-03-01T18:45:51.551Z,71.23
2023-03-01T18:46:51.670Z,71.13
2023-03-01T18:47:52.153Z,71.34
2023-03-01T18:48:52.186Z,71.03
2023-03-01T18:49:51.429Z,71.34
2023-03-01T18:50:50.810Z,71.03
2023-03-01T18:51:50.964Z,71.03
2023-03-01T18:52:51.811Z,71.23
2023-03-01T18:53:51.403Z,71.17
2023-03-01T18:57:00.135Z,71.55
2023-03-01T19:00:36.191Z,71.48
2023-03-01T19:01:17.967Z,71.75
2023-03-01T19:02:16.492Z,71.55
2023-03-01T19:03:16.346Z,71.55
2023-03-01T19:06:57.977Z,72.00
2023-03-01T19:07:57.877Z,72.31
2023-03-01T19:08:57.857Z,72.20
2023-03-01T19:09:57.860Z,72.31
2023-03-01T19:10:57.820Z,71.69
2023-03-01T19:11:57.851Z,71.48
2023-03-01T19:12:57.849Z,71.58
2023-03-01T19:13:57.839Z,71.79
2023-03-01T19:14:57.787Z,71.48
2023-03-01T19:15:57.896Z,71.79
2023-03-01T19:16:58.943Z,71.79
2023-03-01T19:17:59.004Z,71.58
2023-03-01T19:18:58.965Z,71.69
2023-03-01T19:19:58.930Z,71.65
2023-03-01T19:21:03.456Z,71.48
2023-03-01T19:22:05.716Z,71.69
2023-03-01T19:23:01.937Z,71.89
2023-03-01T19:23:59.912Z,71.27
2023-03-01T19:24:58.932Z,71.69
2023-03-01T19:25:58.881Z,71.79
2023-03-01T19:26:58.979Z,71.55
2023-03-01T19:27:58.866Z,71.23
2023-03-01T19:28:58.903Z,71.58
2023-03-01T19:29:58.878Z,71.55
2023-03-01T19:30:58.911Z,71.17
2023-03-01T19:31:58.936Z,71.44
2023-03-01T19:32:58.916Z,70.85
2023-03-01T19:34:10.410Z,71.48
2023-03-01T19:35:00.852Z,71.37
2023-03-01T19:35:58.970Z,71.79
2023-03-01T19:36:59.102Z,72.00
2023-03-01T19:37:58.937Z,71.92
2023-03-01T19:38:58.949Z,72.52
2023-03-01T19:39:58.818Z,71.89
2023-03-01T19:40:58.856Z,72.24
2023-03-01T19:41:58.831Z,72.34
2023-03-01T19:42:58.748Z,72.93
2023-03-01T19:43:58.764Z,73.18
2023-03-01T19:44:58.736Z,72.45
2023-03-01T19:45:58.746Z,73.14
2023-03-01T19:46:58.748Z,72.97
2023-03-01T19:47:59.780Z,72.97
2023-03-01T19:48:58.779Z,72.31
2023-03-01T19:49:58.749Z,72.20
2023-03-01T19:50:58.784Z,72.34
2023-03-01T19:51:58.698Z,72.86
2023-03-01T19:52:58.681Z,72.86
2023-03-01T19:53:59.038Z,72.97
2023-03-01T19:55:08.829Z,73.52
2023-03-01T19:56:00.328Z,73.07
2023-03-01T19:56:58.636Z,72.76
2023-03-01T19:57:58.703Z,72.86
2023-03-01T19:58:58.642Z,72.86
2023-03-01T19:59:58.609Z,72.97
2023-03-01T20:00:58.757Z,72.97
2023-03-01T20:01:58.648Z,72.76
2023-03-01T20:02:58.630Z,72.66
2023-03-01T20:03:58.649Z,72.76
2023-03-01T20:05:00.337Z,73.18
2023-03-01T20:05:58.656Z,73.32
2023-03-01T20:06:58.587Z,73.32
2023-03-01T20:07:58.588Z,73.32
2023-03-01T20:09:02.383Z,73.21
2023-03-01T20:09:58.583Z,72.66
2023-03-01T20:10:58.567Z,72.97
2023-03-01T20:11:58.542Z,72.97
2023-03-01T20:13:31.951Z,72.86
2023-03-01T20:14:00.274Z,72.89
2023-03-01T20:15:00.476Z,73.10
2023-03-01T20:15:58.626Z,72.58
2023-03-01T20:16:58.484Z,73.52
2023-03-01T20:17:58.567Z,73.52
2023-03-01T20:18:59.413Z,73.10
2023-03-01T20:19:58.538Z,73.07
2023-03-01T20:20:58.457Z,72.79
2023-03-01T20:21:58.486Z,73.18
2023-03-01T20:22:59.428Z,72.89
2023-03-01T20:23:58.560Z,73.00
2023-03-01T20:24:58.506Z,72.97
2023-03-01T20:25:58.507Z,72.86
2023-03-01T20:26:59.499Z,73.28
2023-03-01T20:27:59.522Z,72.79
2023-03-01T20:28:58.425Z,73.00
2023-03-01T20:29:58.491Z,72.79
2023-03-01T20:30:58.407Z,72.86
2023-03-01T20:31:58.577Z,73.00
2023-03-01T20:32:58.389Z,72.79
2023-03-01T20:33:58.388Z,72.89
2023-03-01T20:34:58.402Z,73.10
2023-03-01T20:35:58.433Z,72.79
2023-03-01T20:37:33.858Z,73.42
2023-03-01T20:38:32.437Z,72.89
2023-03-01T20:39:30.863Z,72.79
2023-03-01T20:40:33.464Z,72.89
2023-03-01T20:40:58.343Z,72.58
2023-03-01T20:42:31.985Z,72.89
2023-03-01T20:42:58.276Z,73.00
2023-03-01T20:43:58.312Z,73.21
2023-03-01T20:44:58.300Z,73.14
2023-03-01T20:45:58.256Z,73.55
2023-03-01T20:46:59.339Z,73.52
2023-03-01T20:47:59.241Z,73.24
2023-03-01T20:48:58.293Z,73.76
2023-03-01T20:49:58.233Z,73.66
2023-03-01T20:50:58.247Z,73.35
2023-03-01T20:51:58.272Z,73.24
2023-03-01T20:52:58.233Z,73.35
2023-03-01T20:53:58.253Z,73.24
2023-03-01T20:54:58.256Z,73.03
2023-03-01T20:55:59.006Z,73.14
2023-03-01T20:56:58.190Z,73.24
2023-03-01T20:57:58.210Z,73.24
2023-03-01T20:58:59.221Z,73.35
2023-03-01T20:59:58.177Z,72.83
2023-03-01T21:00:58.200Z,73.66
2023-03-01T21:01:58.121Z,73.55
2023-03-01T21:02:58.163Z,73.66
2023-03-01T21:03:58.218Z,73.97
2023-03-01T21:04:58.170Z,73.45
2023-03-01T21:05:58.173Z,73.24
2023-03-01T21:06:58.121Z,73.66
2023-03-01T21:07:58.139Z,73.97
2023-03-01T21:08:58.118Z,73.59
2023-03-01T21:09:58.139Z,74.52
2023-03-01T21:10:58.156Z,74.21
2023-03-01T21:11:58.138Z,74.11
2023-03-01T21:12:58.084Z,73.80
2023-03-01T21:13:58.104Z,73.80
2023-03-01T21:14:58.070Z,74.01
2023-03-01T21:15:58.096Z,73.80
2023-03-01T21:16:58.045Z,74.74
2023-03-01T21:17:58.114Z,74.84
2023-03-01T21:18:58.017Z,74.98
2023-03-01T21:19:58.056Z,74.66
2023-03-01T21:20:58.058Z,75.18
2023-03-01T21:21:58.024Z,74.87
2023-03-01T21:22:58.053Z,74.95
2023-03-01T21:23:57.972Z,74.74
2023-03-01T21:24:58.010Z,74.84
2023-03-01T21:25:58.010Z,74.84
2023-03-01T21:26:58.003Z,73.90
2023-03-01T21:27:57.968Z,73.90
2023-03-01T21:28:57.999Z,74.52
2023-03-01T21:29:57.989Z,73.80
2023-03-01T21:30:57.964Z,74.32
2023-03-01T21:31:58.068Z,74.42
2023-03-01T21:32:57.902Z,74.01
2023-03-01T21:33:57.927Z,74.35
2023-03-01T21:35:02.111Z,73.69
2023-03-01T21:35:57.948Z,74.01
2023-03-01T21:36:57.949Z,74.11
2023-03-01T21:37:57.978Z,74.25
2023-03-01T21:38:57.887Z,74.11
2023-03-01T21:39:57.924Z,73.38
2023-03-01T21:40:57.897Z,73.69
2023-03-01T21:41:57.910Z,73.93
2023-03-01T21:42:57.865Z,73.93
2023-03-01T21:43:57.854Z,74.11
2023-03-01T21:44:57.858Z,74.04
2023-03-01T21:45:58.691Z,74.25
2023-03-01T21:47:00.591Z,74.56
2023-03-01T21:48:00.460Z,74.56
2023-03-01T21:48:59.838Z,74.35
2023-03-01T21:49:57.826Z,73.93
2023-03-01T21:50:57.826Z,74.38
2023-03-01T21:51:57.806Z,74.25
2023-03-01T21:52:57.824Z,73.93
2023-03-01T21:53:58.356Z,74.25
2023-03-01T21:54:57.769Z,75.12
2023-03-01T21:55:57.777Z,74.66
2023-03-01T21:56:57.779Z,74.77
2023-03-01T21:57:57.804Z,74.87
2023-03-01T21:58:57.786Z,74.70
2023-03-01T21:59:58.543Z,74.91
2023-03-01T22:00:57.778Z,75.01
2023-03-01T22:01:57.729Z,74.87
2023-03-01T22:02:57.719Z,74.80
2023-03-01T22:03:57.748Z,74.28
2023-03-01T22:04:57.718Z,74.70
2023-03-01T22:05:57.672Z,74.49
2023-03-01T22:06:57.674Z,75.01
2023-03-01T22:07:57.672Z,74.80
2023-03-01T22:08:57.692Z,74.91
2023-03-01T22:10:30.135Z,74.91
2023-03-01T22:10:57.618Z,74.91
2023-03-01T22:11:57.628Z,74.70
2023-03-01T22:12:57.690Z,74.80
2023-03-01T22:13:57.658Z,74.70
2023-03-01T22:14:57.618Z,74.49
2023-03-01T22:15:57.593Z,75.53
2023-03-01T22:16:57.673Z,76.06
2023-03-01T22:17:57.626Z,75.78
2023-03-01T22:18:57.635Z,75.63
2023-03-01T22:19:57.641Z,76.09
2023-03-01T22:20:57.594Z,75.36
2023-03-01T22:21:57.546Z,75.95
2023-03-01T22:22:57.565Z,75.32
2023-03-01T22:23:57.568Z,75.43
2023-03-01T22:24:58.090Z,75.53
2023-03-01T22:25:57.581Z,75.53
2023-03-01T22:26:57.520Z,74.38
2023-03-01T22:27:58.051Z,74.70
2023-03-01T22:28:57.562Z,74.80
2023-03-01T22:29:57.507Z,75.01
2023-03-01T22:30:57.491Z,74.91
2023-03-01T22:31:57.634Z,74.60
2023-03-01T22:32:57.545Z,75.01
2023-03-01T22:33:58.054Z,74.38
2023-03-01T22:34:57.456Z,74.60
2023-03-01T22:35:57.552Z,74.70
2023-03-01T22:36:57.498Z,75.01
2023-03-01T22:37:57.493Z,74.91
2023-03-01T22:38:58.473Z,74.70
2023-03-01T22:39:57.414Z,74.80
2023-03-01T22:40:57.541Z,75.22
2023-03-01T22:41:57.474Z,75.05
2023-03-01T22:42:57.427Z,74.60
2023-03-01T22:43:57.460Z,74.70
2023-03-01T22:44:57.421Z,74.91
2023-03-01T22:45:57.418Z,74.70
2023-03-01T22:46:57.400Z,75.36
2023-03-01T22:47:57.371Z,74.60
2023-03-01T22:48:57.384Z,74.60
2023-03-01T22:49:57.354Z,75.01
2023-03-01T22:50:57.369Z,74.18
2023-03-01T22:51:57.884Z,74.15
2023-03-01T22:52:57.336Z,73.52
2023-03-01T22:53:57.327Z,73.83
2023-03-01T22:54:57.316Z,73.52
2023-03-01T22:55:58.125Z,73.62
2023-03-01T22:56:57.333Z,73.41
2023-03-01T22:57:57.339Z,73.31
2023-03-01T22:58:57.342Z,73.55
2023-03-01T22:59:57.273Z,73.59
2023-03-01T23:00:57.316Z,73.52
2023-03-01T23:01:58.071Z,73.21
2023-03-01T23:02:57.490Z,73.62
2023-03-01T23:03:57.273Z,73.41
2023-03-01T23:04:57.292Z,73.41
2023-03-01T23:05:57.267Z,73.72
2023-03-01T23:06:58.099Z,73.24
2023-03-01T23:07:57.276Z,73.24
2023-03-01T23:08:57.621Z,73.86
2023-03-01T23:09:57.253Z,74.18
2023-03-01T23:10:57.216Z,73.86